Decoded Metar for PAKP (ANAKTUVUK PASS in AK, USA) (IATA:AKP) | Meteo·Mobile Aviation Weather
aviador You're here:

PAKP Decoded Metar

ANAKTUVUK PASS in AK, USA
Report Time2018-11-15 11:56:00
UTC Time2018-11-15 13:00:38
Flight Rules vfr VFR
Wind210° at 08 kt
W.Decomp.*RWY 20: 7.9 kt HW 1.5 kt LCW
W.Rank210° ranks 7
Current wind is above 210° avg. (7.5)
Visibility9999 m
Phenomena:N/A
Clouds:N/A
Expected CloudBase > 800 ft AGL from Temp-Dew spread
CeilingNone
Temp-21°C (ISA -32)
Dew Point-23°C (84% RH)
AAT-27.6°C
QNH1023 hPa
Density Alt-2,277 ft
Elevation2,106 ft
Report Wrong Elevation
Raw Report
PAKP 151156Z AUTO 21008KT 10SM CLR M21/M23 A3022 RMK AO2 SLP327
T12061233 11206 21267 51001 FZRANO=

Extra information for PAKP:More info

Metar Taf Metar & Taf Last 4 Metars F.Rules Stats Wind Profile Meteogram Temp Stats Airport Information Weather charts Add Link Nearby VenuesMetar ALERT Operation Metar Decoded Social comments

AIRNAV info for PAKP